Terminal Aerodrome Forecast
Issued by NWS Cleveland, OH

Home | Current Version | Previous Version | Graphics & Text | Print | Product List | Glossary On
Versions: 1 2 3 4 5 6 7 8 9 10 11 12 13 14 15 16 17 18 19 20 21 22 23 24 25 26 27
000
FTUS41 KCLE 171500 AAB
TAFCAK
TAF AMD
KCAK 171556Z 1716/1812 27010G20KT P6SM VCSH OVC012
      TEMPO 1716/1719 5SM -SN BR BKN009 OVC015
     FM171900 27012G22KT P6SM OVC025
     FM172300 27010KT P6SM OVC030=

USA.gov is the U.S. government's official web portal to all federal, state and local government web resources and services.